Casper, WY (82601)

3:48 AM MDT on August 25, 2016 (GMT -0600)
Grant Avenue | | Change Station

Elev 5164 ft 42.84 °N, 106.32 °W | Updated 3 minutes ago

Rain
Rain
53.8 °F
Feels Like 53.8 °F
N
0.6
Wind Variable Wind from West
Gusts 1.9 mph

Today
High -- | Low -- °F
--% Chance of Precip.
Yesterday
High -- | Low -- °F
Precip. -- in
Pressure 30.33 in
Visibility 8.0 miles
Clouds Mostly Cloudy 800 ft
Overcast 4300 ft
Dew Point 47 °F
Humidity 78%
Rainfall 0.12 in
Snow Depth Not available.
6:22 AM 7:50 PM
Waning Gibbous, 47% visible
SPECI KCPR 250919Z AUTO 05006KT 8SM RA BKN008 OVC043 09/08 A3033 RMK AO2 RAB12 CIG 007V011 P0003 T00890083
Pressure 30.33 in
Visibility 8.0 miles
Clouds Mostly Cloudy 800 ft
Overcast 4300 ft
Dew Point 47 °F
Humidity 78%
Rainfall 0.12 in
Snow Depth Not available.
6:22 AM 7:50 PM
Waning Gibbous, 47% visible
SPECI KCPR 250919Z AUTO 05006KT 8SM RA BKN008 OVC043 09/08 A3033 RMK AO2 RAB12 CIG 007V011 P0003 T00890083

10-Day Weather Forecast

Almanac

Astronomy

Aug. 25, 2016 Rise Set
Actual Time
Civil Twilight
Nautical Twilight
Astronomical Twilight
Moon
Length of Visible Light
Length of Day
Tomorrow will be .
, % of the Moon is Illuminated

Today's Extremes

State Highs State Lows

Community

WunderPhotos

Upload Photos

1,934,818 photos uploaded!

WunderBlog® & News

Nearby

Air Quality

  Air Quality AQ Index Pollutant
Not available.

Snow Depth

Station Depth Elevation

Earthquake Activity

City Distance Mag. Time & Date
Minimum magnitude displayed is 2.5.

Coastal Water Temperatures

Place Temperature

Stations

Nearby Weather Stations

Station Location Temp. Windchill Dew Point Humidity Wind Precip. Elev Updated Type
                   

Watches & Warnings

There are currently no watches in effect.